CheckWX is a tool to help pilots better visualize weather data.  It is not intended as a substitute for an official pre-flight weather briefing.

06:47:11 UTC

FYOA TAF
Ondangwa Airport
Ondangwa, Namibia
TAF FYOA 170500Z 1706/1715 08004KT CAVOK

Jun-17@
06:00 UTC

Jun-17 @ 06:00 UTC

Jun-17@
15:00 UTC

Jun-17 @ 15:00 UTC

TAF FYOA 170500Z 1706/1715 08004KT CAVOK
Wind
  • 080° at 4 KTS
Conditions
No significant weather
Cloud Levels
  • No significant clouds